createdAt,value
2022-11-21T00:01:36.334Z,84974.81
2022-11-21T00:04:03.450Z,84942.94
2022-11-21T00:06:30.361Z,84925.78
2022-11-21T00:08:57.244Z,84938.53
2022-11-21T00:11:24.126Z,84926.34
2022-11-21T00:13:50.939Z,84895.94
2022-11-21T00:16:17.829Z,84904.72
2022-11-21T00:18:44.774Z,84911.63
2022-11-21T00:21:16.865Z,84850.34
2022-11-21T00:23:45.238Z,84899.47
2022-11-21T00:26:13.920Z,84882.84
2022-11-21T00:28:41.076Z,84857.63
2022-11-21T00:31:08.480Z,84847.88
2022-11-21T00:33:37.044Z,84841.94
2022-11-21T00:36:10.692Z,84832.06
2022-11-21T00:38:39.020Z,84869.03
2022-11-21T00:41:06.456Z,84831.09
2022-11-21T00:43:33.585Z,84862.22
2022-11-21T07:43:45.995Z,84766.13
2022-11-21T07:46:13.080Z,84844.09
2022-11-21T07:48:39.980Z,84862.31
2022-11-21T07:51:06.937Z,84892.69
2022-11-21T07:53:34.023Z,84913.84
2022-11-21T07:56:01.142Z,84865.34
2022-11-21T07:58:28.057Z,84905.34
2022-11-21T08:00:55.063Z,84885.94
2022-11-21T08:03:22.809Z,84904.97
2022-11-21T08:05:49.780Z,84897.94
2022-11-21T08:08:16.887Z,84876.28
2022-11-21T08:10:45.584Z,84883.16
2022-11-21T08:13:13.763Z,84913.03
2022-11-21T08:15:41.219Z,84914.97
2022-11-21T08:18:13.705Z,84918.78
2022-11-21T08:20:41.203Z,84916.88
2022-11-21T08:23:10.475Z,84838.16
2022-11-21T08:25:41.533Z,84892.44
2022-11-21T08:28:10.559Z,84864.63
2022-11-21T08:30:38.387Z,84910.59
2022-11-21T08:33:06.408Z,84921.00
2022-11-21T08:35:37.842Z,84901.88
2022-11-21T08:38:05.564Z,84897.59
2022-11-21T08:40:33.478Z,84922.16
2022-11-21T08:43:02.877Z,84877.47
2022-11-21T08:45:30.066Z,84932.19
2022-11-21T08:47:57.116Z,84897.78
2022-11-21T08:50:25.020Z,84949.53
2022-11-21T08:52:52.328Z,84928.16
2022-11-21T08:55:19.220Z,84901.91
2022-11-21T08:57:46.140Z,84926.91
2022-11-21T09:00:13.863Z,84947.94
2022-11-21T09:02:40.754Z,84905.94
2022-11-21T09:05:09.016Z,84959.06
2022-11-21T09:07:36.437Z,84936.97
2022-11-21T09:10:04.103Z,84958.94
2022-11-21T09:12:31.307Z,84933.75
2022-11-21T09:15:16.922Z,84964.00
2022-11-21T09:18:02.827Z,84913.75
2022-11-21T09:20:30.589Z,84959.97
2022-11-21T09:22:57.832Z,84958.31
2022-11-21T09:25:24.842Z,84956.78
2022-11-21T09:27:51.687Z,84939.69
2022-11-21T09:30:18.748Z,84943.59
2022-11-21T09:32:45.638Z,84911.75
2022-11-21T09:35:12.760Z,84923.81
2022-11-21T09:37:40.361Z,84947.59
2022-11-21T09:40:12.859Z,84915.13
2022-11-21T09:43:10.445Z,84957.25
2022-11-21T09:45:57.089Z,84951.47
2022-11-21T09:49:01.343Z,84956.66
2022-11-21T09:51:31.203Z,84939.53
2022-11-21T09:54:14.061Z,84902.78
2022-11-21T09:56:43.380Z,84937.03
2022-11-21T09:59:37.397Z,84942.56
2022-11-21T10:02:16.014Z,84936.16
2022-11-21T10:04:43.681Z,84919.66
2022-11-21T10:07:13.674Z,84943.53
2022-11-21T10:10:14.570Z,84948.22
2022-11-21T10:13:13.122Z,84942.75
2022-11-21T10:15:47.038Z,84947.03
2022-11-21T10:18:43.668Z,84918.34
2022-11-21T10:21:16.303Z,84941.25
2022-11-21T10:24:12.320Z,84932.97
2022-11-21T10:26:45.870Z,84890.69
2022-11-21T10:29:22.542Z,84942.44
2022-11-21T10:31:50.092Z,84937.81
2022-11-21T10:34:25.105Z,84910.69
2022-11-21T10:36:57.086Z,84915.69
2022-11-21T10:39:51.045Z,84933.91
2022-11-21T10:42:36.317Z,84942.06
2022-11-21T10:45:19.402Z,84933.47
2022-11-21T10:47:51.618Z,84913.19
2022-11-21T10:50:39.521Z,84937.28
2022-11-21T10:53:31.318Z,84903.75
2022-11-21T10:56:05.982Z,84954.00
2022-11-21T10:58:46.280Z,84935.00
2022-11-21T11:01:34.841Z,84956.63
2022-11-21T11:04:44.133Z,84956.53
2022-11-21T11:07:23.970Z,84961.38
2022-11-21T11:09:52.718Z,84950.53
2022-11-21T11:12:23.173Z,84949.06
2022-11-21T11:14:56.332Z,84938.53
2022-11-21T11:17:28.774Z,84919.69
2022-11-21T11:20:27.963Z,84905.72
2022-11-21T11:22:54.860Z,84901.84
2022-11-21T11:25:22.871Z,84929.22
2022-11-21T11:27:49.853Z,84937.94
2022-11-21T11:30:18.677Z,84915.03
2022-11-21T11:32:45.804Z,84933.69
2022-11-21T11:35:12.684Z,84936.72
2022-11-21T11:37:41.787Z,84885.75
2022-11-21T11:40:41.146Z,84931.97
2022-11-21T11:43:38.484Z,84921.63
2022-11-21T11:46:44.402Z,84908.63
2022-11-21T11:49:59.358Z,84935.81
2022-11-21T11:52:32.342Z,84891.56
2022-11-21T11:55:05.748Z,84912.72
2022-11-21T11:57:35.710Z,84890.91
2022-11-21T12:00:35.981Z,84907.13
2022-11-21T12:03:13.893Z,84919.69
2022-11-21T12:05:59.447Z,84930.59
2022-11-21T12:08:42.235Z,84924.34
2022-11-21T12:12:06.822Z,84931.81
2022-11-21T12:15:08.083Z,84928.50
2022-11-21T12:17:56.211Z,84923.56
2022-11-21T12:21:05.721Z,84920.25
2022-11-21T12:23:44.400Z,84926.63
2022-11-21T12:26:42.161Z,84933.34
2022-11-21T12:29:37.256Z,84914.28
2022-11-21T12:32:30.461Z,84925.09
2022-11-21T12:35:26.437Z,84911.91
2022-11-21T12:37:53.326Z,84916.88
2022-11-21T12:40:42.170Z,84905.84
2022-11-21T12:43:30.528Z,84916.88
2022-11-21T12:46:19.763Z,84888.03
2022-11-21T12:49:31.467Z,84910.97
2022-11-21T12:52:17.062Z,84910.28
2022-11-21T12:55:16.212Z,84840.47
2022-11-21T12:58:05.991Z,84902.63
2022-11-21T13:01:18.146Z,84896.38
2022-11-21T13:04:03.482Z,84908.22
2022-11-21T13:06:34.196Z,84924.94
2022-11-21T13:09:06.076Z,84929.34
2022-11-21T13:11:58.844Z,84927.13
2022-11-21T13:14:31.657Z,84936.13
2022-11-21T13:17:10.983Z,84925.28
2022-11-21T13:19:58.958Z,84933.16
2022-11-21T13:22:56.221Z,84930.41
2022-11-21T13:25:32.527Z,84928.25
2022-11-21T13:28:32.815Z,84923.34
2022-11-21T13:31:05.894Z,84933.63
2022-11-21T13:33:35.928Z,84926.72
2022-11-21T13:36:07.095Z,84930.69
2022-11-21T13:38:53.025Z,84931.34
2022-11-21T13:41:53.791Z,84926.25
2022-11-21T13:44:41.541Z,84919.94
2022-11-21T13:47:09.535Z,84928.78
2022-11-21T13:49:58.425Z,84934.94
2022-11-21T13:52:34.360Z,84925.34
2022-11-21T13:55:19.595Z,84926.66
2022-11-21T13:57:49.779Z,84927.81
2022-11-21T14:00:28.886Z,84926.44
2022-11-21T14:03:07.597Z,84916.59
2022-11-21T14:05:40.424Z,84917.06
2022-11-21T14:08:17.211Z,84905.97
2022-11-21T14:10:46.142Z,84858.34
2022-11-21T14:13:22.762Z,84910.59
2022-11-21T14:16:14.440Z,84905.56
2022-11-21T14:18:44.883Z,84908.53
2022-11-21T14:21:38.450Z,84901.97
2022-11-21T14:24:22.087Z,84924.94
2022-11-21T14:26:52.469Z,84927.53
2022-11-21T14:29:39.046Z,84932.47
2022-11-21T14:32:06.434Z,84943.34
2022-11-21T14:34:33.569Z,84907.84
2022-11-21T14:37:03.575Z,84888.72
2022-11-21T14:39:40.966Z,84937.91
2022-11-21T14:42:16.264Z,84927.19
2022-11-21T14:44:44.069Z,84923.03
2022-11-21T14:47:24.703Z,84929.00
2022-11-21T14:49:55.593Z,84903.88
2022-11-21T14:52:31.098Z,84932.63
2022-11-21T14:57:48.856Z,84935.28
2022-11-21T15:00:51.341Z,84936.75
2022-11-21T15:03:19.369Z,84897.41
2022-11-21T15:06:01.937Z,84940.72
2022-11-21T15:09:03.263Z,84940.50
2022-11-21T15:11:23.573Z,84939.91
2022-11-21T15:14:16.944Z,84931.88
2022-11-21T15:16:47.535Z,84952.50
2022-11-21T15:19:26.847Z,84945.84
2022-11-21T15:21:57.902Z,84968.22
2022-11-21T15:24:42.417Z,84942.78
2022-11-21T15:27:36.375Z,84952.78
2022-11-21T15:30:21.215Z,84916.91
2022-11-21T15:33:03.949Z,84963.97
2022-11-21T15:35:41.673Z,84965.78
2022-11-21T15:38:20.942Z,84963.75
2022-11-21T15:41:10.785Z,84944.81
2022-11-21T15:43:55.735Z,84949.53
2022-11-21T15:46:23.938Z,84940.06
2022-11-21T15:49:31.048Z,84934.63
2022-11-21T15:52:09.539Z,84949.44
2022-11-21T15:54:37.240Z,84950.66
2022-11-21T15:57:04.253Z,84965.78
2022-11-21T15:59:31.784Z,84949.69
2022-11-21T16:01:58.854Z,84945.72
2022-11-21T16:04:26.417Z,84957.94
2022-11-21T16:06:54.817Z,84962.13
2022-11-21T16:09:21.849Z,84960.56
2022-11-21T16:11:48.949Z,84937.88
2022-11-21T16:14:18.428Z,84947.47
2022-11-21T16:16:47.128Z,84975.38
2022-11-21T16:19:15.696Z,84940.91
2022-11-21T16:21:43.004Z,84968.03
2022-11-21T16:24:09.989Z,84974.91
2022-11-21T16:26:36.987Z,84948.22
2022-11-21T16:29:07.412Z,84977.81
2022-11-21T16:31:34.738Z,84964.59
2022-11-21T16:34:01.931Z,84965.81
2022-11-21T16:36:30.791Z,84968.56
2022-11-21T16:39:01.750Z,84965.09
2022-11-21T16:41:30.500Z,84931.22
2022-11-21T16:43:57.908Z,84955.75
2022-11-21T16:46:25.323Z,84981.50
2022-11-21T16:49:00.721Z,84975.91
2022-11-21T16:51:28.437Z,84941.91
2022-11-21T16:53:57.214Z,84968.66
2022-11-21T16:56:24.723Z,84948.75
2022-11-21T16:58:51.990Z,84970.75
2022-11-21T17:01:24.538Z,84947.69
2022-11-21T17:03:52.382Z,84942.56
2022-11-21T17:06:22.091Z,84982.03
2022-11-21T17:08:49.578Z,84972.63
2022-11-21T17:11:20.417Z,84986.34
2022-11-21T17:13:48.887Z,84965.25
2022-11-21T17:16:18.506Z,84939.53
2022-11-21T17:18:45.972Z,84997.47
2022-11-21T17:21:16.146Z,85005.69
2022-11-21T17:23:44.830Z,84989.72
2022-11-21T17:26:14.804Z,84998.63
2022-11-21T17:28:45.487Z,85001.69
2022-11-21T17:31:15.459Z,84991.97
2022-11-21T17:33:43.897Z,85004.16
2022-11-21T17:36:15.188Z,85007.19
2022-11-21T17:38:47.174Z,85013.22
2022-11-21T17:41:18.701Z,85014.56
2022-11-21T17:43:47.272Z,84992.72
2022-11-21T17:46:20.099Z,85002.91
2022-11-21T17:48:54.661Z,85028.09
2022-11-21T17:51:25.764Z,85023.94
2022-11-21T17:53:53.221Z,84985.84
2022-11-21T17:56:26.621Z,84996.72
2022-11-21T17:58:53.746Z,85007.56
2022-11-21T18:01:21.132Z,84979.59
2022-11-21T18:03:57.623Z,85030.75
2022-11-21T18:06:43.204Z,85024.63
2022-11-21T18:09:11.891Z,85014.44
2022-11-21T18:11:40.568Z,85027.38
2022-11-21T18:14:10.184Z,85032.38
2022-11-21T18:16:39.697Z,85036.38
2022-11-21T18:19:07.674Z,85036.53
2022-11-21T18:21:35.990Z,85011.22
2022-11-21T18:24:03.131Z,85025.44
2022-11-21T18:26:32.798Z,85024.75
2022-11-21T18:31:48.783Z,85033.06
2022-11-21T18:34:15.747Z,85028.38
2022-11-21T18:36:42.770Z,85009.97
2022-11-21T18:39:14.640Z,85019.63
2022-11-21T18:41:42.039Z,85005.34
2022-11-21T18:44:10.083Z,85043.41
2022-11-21T18:46:38.826Z,85031.88
2022-11-21T18:49:07.809Z,85017.03
2022-11-21T18:51:36.706Z,85038.84
2022-11-21T18:54:10.382Z,85041.28
2022-11-21T18:56:38.969Z,85036.66
2022-11-21T18:59:07.057Z,85022.22
2022-11-21T19:01:36.406Z,85034.41
2022-11-21T19:04:03.951Z,85014.56
2022-11-21T19:06:31.323Z,85037.69
2022-11-21T19:08:58.981Z,85022.84
2022-11-21T19:11:28.715Z,85036.47
2022-11-21T19:13:57.808Z,85042.13
2022-11-21T19:16:26.650Z,85034.47
2022-11-21T19:21:42.433Z,85001.56
2022-11-21T19:24:15.233Z,85039.72
2022-11-21T19:26:43.444Z,85048.03
2022-11-21T19:29:11.148Z,85037.97
2022-11-21T19:31:44.491Z,85058.31
2022-11-21T19:34:13.937Z,85038.66
2022-11-21T19:36:41.087Z,85059.00
2022-11-21T19:39:09.190Z,85047.06
2022-11-21T19:41:36.304Z,85072.75
2022-11-21T19:44:03.817Z,85040.91
2022-11-21T19:46:35.562Z,85058.22
2022-11-21T19:49:03.371Z,85060.69
2022-11-21T19:51:35.811Z,85063.41
2022-11-21T19:54:04.568Z,85061.41
2022-11-21T19:56:31.673Z,85049.72
2022-11-21T19:58:59.635Z,85024.59
2022-11-21T20:01:32.074Z,85068.28
2022-11-21T20:04:02.592Z,85058.06
2022-11-21T20:06:46.109Z,85043.63
2022-11-21T20:09:15.960Z,85027.78
2022-11-21T20:11:45.044Z,85057.75
2022-11-21T20:14:19.645Z,85027.72
2022-11-21T20:16:49.003Z,85048.75
2022-11-21T20:19:18.221Z,85041.25
2022-11-21T20:21:46.189Z,85041.06
2022-11-21T20:24:13.476Z,85009.81
2022-11-21T20:26:40.893Z,85013.25
2022-11-21T20:29:08.242Z,85016.50
2022-11-21T20:31:37.723Z,84987.72
2022-11-21T20:34:12.623Z,84997.78
2022-11-21T20:36:40.123Z,85018.91
2022-11-21T20:39:10.914Z,85013.53
2022-11-21T20:41:37.971Z,84996.72
2022-11-21T20:47:00.342Z,85022.06
2022-11-21T20:49:27.485Z,85035.88
2022-11-21T20:53:43.853Z,85027.66
2022-11-21T20:54:41.592Z,85046.78
2022-11-21T20:57:14.563Z,85025.09
2022-11-21T20:59:42.449Z,84989.56
2022-11-21T21:02:12.466Z,85006.00
2022-11-21T21:04:39.741Z,85028.50
2022-11-21T21:07:06.737Z,85009.09
2022-11-21T21:09:33.755Z,85022.59
2022-11-21T21:12:00.645Z,85026.63
2022-11-21T21:14:27.595Z,85006.78
2022-11-21T21:16:54.441Z,84947.00
2022-11-21T21:19:21.963Z,85037.47
2022-11-21T21:21:48.960Z,85043.69
2022-11-21T21:24:16.041Z,85063.63
2022-11-21T21:26:47.794Z,85054.13
2022-11-21T21:29:19.966Z,85062.31
2022-11-21T21:31:51.604Z,85071.19
2022-11-21T21:34:23.250Z,85069.22
2022-11-21T21:36:51.145Z,85031.19
2022-11-21T21:39:18.393Z,85071.31
2022-11-21T21:41:47.276Z,85052.31
2022-11-21T21:44:15.089Z,85091.19
2022-11-21T21:46:42.361Z,85094.00
2022-11-21T21:49:09.322Z,85091.28
2022-11-21T21:51:37.449Z,85072.31
2022-11-21T21:54:05.236Z,85090.13
2022-11-21T21:56:32.719Z,85068.72
2022-11-21T21:58:59.913Z,85053.09
2022-11-21T22:01:29.029Z,85075.47
2022-11-21T22:03:58.298Z,85059.19
2022-11-21T22:06:25.706Z,85067.44
2022-11-21T22:08:54.031Z,85058.66
2022-11-21T22:11:23.332Z,85073.66
2022-11-21T22:13:56.328Z,85086.50
2022-11-21T22:16:23.686Z,85086.47
2022-11-21T22:18:50.623Z,85039.56
2022-11-21T22:21:17.572Z,85084.50
2022-11-21T22:24:09.288Z,85084.44
2022-11-21T22:26:32.354Z,85081.94
2022-11-21T22:28:59.316Z,85059.00
2022-11-21T22:31:26.302Z,85071.13
2022-11-21T22:33:53.350Z,85075.75
2022-11-21T22:36:20.308Z,85062.81
2022-11-21T22:38:47.215Z,85094.13
2022-11-21T22:41:16.744Z,85064.16
2022-11-21T22:43:44.482Z,85058.81
2022-11-21T22:46:12.995Z,85075.16
2022-11-21T22:48:40.346Z,85094.19
2022-11-21T22:51:08.050Z,85083.91
2022-11-21T22:53:39.974Z,85092.75
2022-11-21T22:56:10.039Z,85092.03
2022-11-21T22:58:39.506Z,85098.19
2022-11-21T23:01:15.061Z,85090.03
2022-11-21T23:03:43.214Z,85062.78
2022-11-21T23:06:13.278Z,85050.56
2022-11-21T23:08:41.300Z,85101.63
2022-11-21T23:11:13.271Z,85049.44
2022-11-21T23:13:42.842Z,85076.00
2022-11-21T23:16:10.597Z,85112.06
2022-11-21T23:18:37.710Z,85114.91
2022-11-21T23:21:05.049Z,85083.47
2022-11-21T23:23:32.451Z,85095.75
2022-11-21T23:25:59.636Z,85105.47
2022-11-21T23:28:26.950Z,85105.28
2022-11-21T23:30:53.996Z,85109.63
2022-11-21T23:33:21.206Z,85106.88
2022-11-21T23:35:48.321Z,85108.16
2022-11-21T23:38:17.096Z,85121.13
2022-11-21T23:40:48.003Z,85119.09
2022-11-21T23:43:16.529Z,85100.03
2022-11-21T23:45:44.038Z,85100.03
2022-11-21T23:48:11.560Z,85082.50
2022-11-21T23:50:38.422Z,85115.97
2022-11-21T23:53:05.342Z,85090.16
2022-11-21T23:55:32.455Z,85134.63
2022-11-21T23:57:59.709Z,85140.16
